Time;durP1;ratioP1;P1;durP2;ratioP2;P2;SDS_P1;SDS_P2;PMS_P1;PMS_P2;Temp;Humidity;BMP_temperature;BMP_pressure;BME280_temperature;BME280_humidity;BME280_pressure;Samples;Min_cycle;Max_cycle;Signal;HPM_P1;HPM_P2
2022/05/26 09:21:14;;;;;;;13.20;11.18;;;17.60;99.90;;;;;;5091522;28;20557;-76
2022/05/26 09:23:44;;;;;;;14.40;9.70;;;17.70;99.90;;;;;;5086393;28;20217;-75
2022/05/26 09:26:18;;;;;;;11.18;10.00;;;17.60;99.90;;;;;;5067639;28;20197;-76
2022/05/26 09:28:48;;;;;;;11.32;9.90;;;17.50;99.90;;;;;;5068748;28;20201;-75
2022/05/26 09:31:31;;;;;;;10.38;9.38;;;17.50;99.90;;;;;;5071311;28;20198;-75
2022/05/26 09:34:07;;;;;;;12.38;10.40;;;17.70;99.90;;;;;;5070951;28;20213;-75
2022/05/26 09:36:48;;;;;;;11.50;9.70;;;17.80;99.90;;;;;;5071697;28;20221;-75
2022/05/26 09:39:19;;;;;;;10.73;9.13;;;18.00;99.90;;;;;;5050526;28;20217;-75
2022/05/26 09:41:49;;;;;;;10.38;8.50;;;18.20;99.90;;;;;;5050020;28;20560;-76
2022/05/26 09:44:50;;;;;;;10.95;8.82;;;18.30;99.90;;;;;;5052966;28;20256;-76
2022/05/26 09:47:28;;;;;;;11.25;9.07;;;18.40;99.90;;;;;;5061876;28;20209;-75
2022/05/26 09:49:58;;;;;;;11.90;8.18;;;18.50;99.90;;;;;;5066085;28;20202;-75
2022/05/26 09:52:30;;;;;;;11.68;7.40;;;18.40;99.90;;;;;;5069928;28;20204;-75
2022/05/26 09:55:19;;;;;;;12.32;7.90;;;18.50;99.90;;;;;;5054892;28;20213;-75
2022/05/26 09:57:48;;;;;;;9.15;6.57;;;18.40;99.90;;;;;;5071999;28;20201;-75
2022/05/26 10:00:36;;;;;;;9.65;7.35;;;18.50;99.90;;;;;;5061860;28;20237;-75
2022/05/26 10:03:09;;;;;;;9.63;7.13;;;18.20;99.90;;;;;;5059955;28;20190;-74
2022/05/26 10:05:43;;;;;;;9.23;7.10;;;18.10;99.90;;;;;;5058155;28;20206;-75
2022/05/26 10:08:19;;;;;;;8.00;6.38;;;18.40;99.90;;;;;;5061881;28;20202;-76
2022/05/26 10:10:53;;;;;;;9.82;7.95;;;18.60;99.90;;;;;;5060791;28;20189;-75
2022/05/26 10:13:37;;;;;;;8.32;7.05;;;18.50;99.90;;;;;;5062204;28;20220;-75
2022/05/26 10:16:13;;;;;;;11.40;7.78;;;18.30;99.90;;;;;;5080064;28;20201;-75
2022/05/26 10:19:06;;;;;;;9.35;7.30;;;18.20;99.90;;;;;;5066933;28;20206;-75
2022/05/26 10:21:57;;;;;;;10.60;7.97;;;18.30;99.90;;;;;;5028248;28;20206;-76
2022/05/26 10:24:44;;;;;;;11.52;8.45;;;18.50;99.90;;;;;;5076215;28;20260;-76
2022/05/26 10:27:23;;;;;;;9.98;8.30;;;18.60;99.90;;;;;;5061937;28;20194;-76
2022/05/26 10:30:05;;;;;;;12.90;8.82;;;18.30;99.90;;;;;;5069246;28;20190;-76
2022/05/26 10:32:43;;;;;;;11.23;7.82;;;18.30;99.90;;;;;;5055499;28;20202;-76
2022/05/26 10:35:19;;;;;;;9.10;7.30;;;18.20;99.90;;;;;;5054814;28;20218;-76
2022/05/26 10:38:10;;;;;;;12.73;8.15;;;18.30;99.90;;;;;;5054030;28;20194;-76
2022/05/26 10:40:52;;;;;;;8.65;6.95;;;18.40;99.90;;;;;;5046634;28;20206;-76
2022/05/26 10:43:23;;;;;;;9.32;6.32;;;18.50;99.90;;;;;;5035125;28;20207;-76
2022/05/26 10:45:52;;;;;;;7.63;6.40;;;18.60;99.90;;;;;;5051784;28;20210;-76
2022/05/26 10:48:27;;;;;;;8.25;6.30;;;18.80;99.90;;;;;;5054964;28;20210;-76
2022/05/26 10:51:00;;;;;;;7.60;5.57;;;18.70;99.90;;;;;;5054332;28;20220;-76
2022/05/26 10:53:36;;;;;;;6.40;5.70;;;18.70;99.90;;;;;;5054417;28;20557;-76
2022/05/26 10:56:21;;;;;;;9.02;5.93;;;18.90;99.30;;;;;;5040651;28;20194;-76
2022/05/26 10:58:51;;;;;;;6.05;5.03;;;19.00;99.40;;;;;;5033663;28;20206;-76
2022/05/26 11:01:29;;;;;;;7.03;5.65;;;19.00;98.90;;;;;;5041707;28;20214;-76
2022/05/26 11:04:05;;;;;;;7.55;5.38;;;18.80;99.60;;;;;;5054247;28;20222;-76
2022/05/26 11:06:35;;;;;;;7.60;6.18;;;18.80;99.90;;;;;;5053417;28;20202;-76
2022/05/26 11:09:11;;;;;;;6.47;5.30;;;18.80;99.90;;;;;;5041527;28;20202;-76
2022/05/26 11:11:45;;;;;;;5.30;4.80;;;18.80;99.90;;;;;;5051957;28;20197;-76
2022/05/26 11:17:31;;;;;;;7.07;5.28;;;18.60;95.60;;;;;;5052700;28;20194;-76
2022/05/26 11:20:02;;;;;;;7.55;5.10;;;18.60;95.40;;;;;;5011913;28;20239;-76
2022/05/26 11:22:30;;;;;;;6.10;4.68;;;18.60;95.70;;;;;;4997168;28;20216;-76
2022/05/26 11:25:37;;;;;;;7.20;4.80;;;18.60;96.20;;;;;;4994133;28;20243;-76
2022/05/26 11:28:11;;;;;;;5.68;5.00;;;18.60;97.10;;;;;;4994845;28;20212;-76
2022/05/26 11:36:53;;;;;;;7.47;4.90;;;19.40;96.50;;;;;;5004588;28;20191;-76
2022/05/26 11:39:28;;;;;;;7.00;4.60;;;19.30;96.70;;;;;;5002572;28;20199;-76
2022/05/26 11:41:58;;;;;;;7.05;4.75;;;19.00;96.30;;;;;;5002014;28;20716;-76
2022/05/26 11:44:39;;;;;;;5.10;4.20;;;18.90;95.10;;;;;;5009164;28;20223;-76
2022/05/26 11:47:25;;;;;;;7.35;5.05;;;18.80;94.40;;;;;;5008726;28;20195;-76
2022/05/26 11:50:31;;;;;;;9.25;4.95;;;18.80;94.40;;;;;;5006522;28;20204;-76
2022/05/26 11:53:14;;;;;;;5.65;4.45;;;18.70;94.10;;;;;;5005782;28;20215;-76
2022/05/26 11:55:53;;;;;;;8.50;4.65;;;19.00;94.20;;;;;;5006729;28;20200;-76
2022/05/26 11:58:37;;;;;;;5.25;4.43;;;19.40;94.10;;;;;;5008791;28;20203;-76
2022/05/26 12:01:32;;;;;;;5.20;4.15;;;19.80;94.40;;;;;;4994094;28;20219;-76
2022/05/26 12:04:24;;;;;;;6.82;4.63;;;19.80;93.50;;;;;;5004922;28;20238;-76
2022/05/26 12:06:58;;;;;;;5.97;5.10;;;20.00;93.80;;;;;;5012370;28;20207;-76
2022/05/26 12:09:34;;;;;;;8.07;4.97;;;20.00;93.00;;;;;;5013689;28;20208;-76
2022/05/26 12:12:04;;;;;;;7.28;5.07;;;19.90;93.40;;;;;;5013690;28;20191;-76
2022/05/26 12:14:37;;;;;;;10.02;5.28;;;19.70;94.20;;;;;;4998747;28;20232;-76
2022/05/26 12:17:35;;;;;;;6.55;4.97;;;19.60;94.30;;;;;;5017373;28;20684;-76
2022/05/26 12:20:26;;;;;;;7.10;5.05;;;19.50;94.70;;;;;;5012875;28;20211;-76
2022/05/26 12:23:27;;;;;;;7.03;5.72;;;19.90;94.10;;;;;;5011074;28;20201;-76
2022/05/26 12:26:33;;;;;;;8.75;6.05;;;19.60;94.50;;;;;;5005515;28;20206;-76
2022/05/26 12:29:38;;;;;;;6.47;4.65;;;19.80;94.30;;;;;;5004133;28;20207;-76
2022/05/26 12:32:07;;;;;;;6.07;5.20;;;19.80;93.90;;;;;;4992024;28;20200;-75
2022/05/26 12:34:50;;;;;;;6.32;4.93;;;19.70;92.80;;;;;;5011535;28;20578;-76
2022/05/26 12:37:34;;;;;;;6.57;4.95;;;19.70;93.20;;;;;;4996160;28;20196;-76
2022/05/26 12:40:28;;;;;;;6.40;4.78;;;19.70;92.10;;;;;;5001368;28;20225;-78
2022/05/26 12:43:27;;;;;;;6.45;4.38;;;19.80;93.00;;;;;;5008250;28;20204;-79
2022/05/26 12:45:57;;;;;;;6.18;4.40;;;20.20;92.70;;;;;;5005722;28;20211;-78
2022/05/26 12:49:04;;;;;;;8.60;4.90;;;20.50;92.20;;;;;;5007081;28;20192;-79
2022/05/26 12:51:38;;;;;;;8.40;5.13;;;20.60;91.90;;;;;;5010400;28;20672;-79
2022/05/26 12:54:08;;;;;;;8.23;5.53;;;20.40;92.40;;;;;;5004143;28;20234;-78
2022/05/26 12:56:46;;;;;;;5.40;4.68;;;19.90;92.40;;;;;;5013568;28;20196;-78
2022/05/26 12:59:15;;;;;;;7.82;4.82;;;19.90;93.30;;;;;;5012811;28;20194;-78
2022/05/26 13:01:48;;;;;;;7.57;5.07;;;19.80;93.60;;;;;;4992452;28;20231;-78
2022/05/26 13:04:20;;;;;;;7.40;4.85;;;20.00;93.50;;;;;;4997699;28;20219;-78
2022/05/26 13:06:52;;;;;;;6.55;4.68;;;20.00;92.70;;;;;;5010793;28;20200;-78
2022/05/26 13:09:24;;;;;;;5.00;4.50;;;20.40;92.60;;;;;;5012464;28;20700;-78
2022/05/26 13:11:54;;;;;;;8.57;5.20;;;20.40;92.00;;;;;;5012218;28;20204;-78
2022/05/26 13:14:31;;;;;;;6.30;4.90;;;20.50;92.10;;;;;;5011224;28;20587;-78
2022/05/26 13:17:00;;;;;;;6.90;5.60;;;20.60;91.80;;;;;;5013600;28;20187;-78
2022/05/26 13:19:29;;;;;;;7.80;6.20;;;20.70;91.50;;;;;;5006043;28;20240;-78
2022/05/26 13:21:59;;;;;;;6.82;5.63;;;20.70;91.60;;;;;;5019027;28;20226;-78
2022/05/26 13:24:29;;;;;;;5.95;4.75;;;20.80;92.30;;;;;;5012064;28;20231;-78
2022/05/26 13:26:59;;;;;;;7.43;4.85;;;20.60;91.80;;;;;;5007697;28;20211;-78
2022/05/26 13:29:41;;;;;;;5.43;4.35;;;20.70;92.70;;;;;;5011678;28;20223;-79
2022/05/26 13:35:02;;;;;;;5.63;3.85;;;20.80;93.00;;;;;;5003777;28;20704;-78
2022/05/26 13:37:32;;;;;;;6.90;4.13;;;20.90;92.90;;;;;;5011183;28;20215;-78
2022/05/26 13:40:09;;;;;;;6.35;4.05;;;20.90;93.00;;;;;;5007095;28;20207;-78
2022/05/26 13:42:42;;;;;;;6.38;4.30;;;20.60;92.50;;;;;;5002456;28;20208;-79
2022/05/26 13:45:26;;;;;;;7.50;4.47;;;20.50;92.60;;;;;;5008833;28;20223;-78
2022/05/26 13:48:28;;;;;;;4.97;4.30;;;20.60;92.60;;;;;;4999703;28;20219;-78
2022/05/26 13:51:03;;;;;;;5.50;4.30;;;20.60;92.50;;;;;;5023087;28;20215;-78
2022/05/26 13:53:32;;;;;;;6.28;4.70;;;20.80;93.00;;;;;;5001410;28;20653;-75
2022/05/26 13:56:07;;;;;;;7.07;5.00;;;20.40;93.00;;;;;;5008636;28;20200;-75
2022/05/26 13:58:35;;;;;;;7.38;4.70;;;20.20;93.00;;;;;;4998528;28;20206;-75
2022/05/26 14:01:05;;;;;;;7.03;4.25;;;20.20;93.10;;;;;;5007130;28;20216;-75
2022/05/26 14:03:36;;;;;;;4.75;4.28;;;20.20;93.50;;;;;;5006528;28;20219;-76
2022/05/26 14:06:06;;;;;;;5.65;3.80;;;20.10;93.90;;;;;;5006676;28;20208;-78
2022/05/26 14:08:48;;;;;;;5.95;3.53;;;19.70;94.50;;;;;;5004800;28;20196;-79
2022/05/26 14:11:38;;;;;;;4.93;3.88;;;19.60;95.30;;;;;;4996549;28;20200;-78
2022/05/26 14:14:40;;;;;;;6.05;3.85;;;19.50;95.70;;;;;;5013329;28;20575;-77
2022/05/26 14:17:10;;;;;;;6.72;4.00;;;19.50;96.30;;;;;;5012963;28;20202;-78
2022/05/26 14:19:47;;;;;;;4.43;3.13;;;19.70;95.80;;;;;;5013495;28;20617;-77
2022/05/26 14:22:23;;;;;;;7.40;3.35;;;19.80;96.30;;;;;;5004551;28;20219;-78
2022/05/26 14:24:53;;;;;;;3.78;2.90;;;19.60;96.60;;;;;;4999923;28;20236;-78
2022/05/26 14:27:30;;;;;;;3.70;3.35;;;19.50;96.50;;;;;;5015014;28;20210;-78
2022/05/26 14:30:00;;;;;;;6.78;4.05;;;19.40;97.50;;;;;;5008009;28;21038;-78
2022/05/26 14:32:30;;;;;;;7.63;3.80;;;19.50;97.30;;;;;;5007628;28;20195;-76
2022/05/26 14:35:01;;;;;;;5.80;3.70;;;19.60;97.40;;;;;;5011678;28;20878;-76
2022/05/26 14:37:30;;;;;;;4.95;3.40;;;19.50;97.70;;;;;;5008484;28;20200;-76
2022/05/26 14:39:58;;;;;;;4.40;3.42;;;19.80;97.30;;;;;;5006644;28;20204;-76
2022/05/26 14:42:32;;;;;;;3.92;3.60;;;20.00;96.70;;;;;;5005984;28;20230;-75
2022/05/26 14:45:00;;;;;;;6.95;3.83;;;20.10;96.40;;;;;;5010873;28;20219;-75
2022/05/26 14:47:28;;;;;;;5.70;3.40;;;20.10;95.90;;;;;;5011181;28;20204;-75
2022/05/26 14:49:55;;;;;;;5.55;3.67;;;20.10;96.30;;;;;;5003204;28;20207;-75
2022/05/26 14:52:28;;;;;;;4.65;3.90;;;20.00;96.50;;;;;;5015319;28;20214;-75
2022/05/26 14:57:40;;;;;;;6.80;4.35;;;19.70;97.00;;;;;;5006908;28;20180;-75
2022/05/26 15:00:11;;;;;;;6.38;4.07;;;19.80;96.80;;;;;;5014424;28;20199;-75
2022/05/26 15:02:45;;;;;;;4.22;3.42;;;19.90;96.80;;;;;;5013269;28;20227;-75
2022/05/26 15:05:13;;;;;;;7.32;4.03;;;20.10;97.00;;;;;;5016280;28;20224;-76
2022/05/26 15:07:44;;;;;;;4.95;3.78;;;19.80;96.40;;;;;;4999271;28;20215;-75
2022/05/26 15:10:13;;;;;;;8.30;3.72;;;19.80;96.70;;;;;;5009720;28;20200;-75
2022/05/26 15:12:51;;;;;;;5.53;3.63;;;19.80;97.00;;;;;;5016768;28;20199;-75
2022/05/26 15:15:28;;;;;;;6.05;3.28;;;19.70;96.60;;;;;;5014052;28;20239;-76
2022/05/26 15:17:56;;;;;;;5.20;3.63;;;19.70;96.80;;;;;;5014986;28;20199;-75
2022/05/26 15:20:24;;;;;;;5.00;3.20;;;19.80;97.00;;;;;;5011654;28;20252;-76
2022/05/26 15:23:03;;;;;;;5.32;3.38;;;19.90;96.30;;;;;;5006507;28;20220;-78
2022/05/26 15:25:31;;;;;;;4.93;3.58;;;19.70;95.50;;;;;;5012466;28;20227;-76
2022/05/26 15:28:01;;;;;;;4.75;3.17;;;19.70;95.20;;;;;;5024593;28;20208;-76
2022/05/26 15:30:28;;;;;;;6.80;3.60;;;19.70;95.70;;;;;;5008836;28;20207;-75
2022/05/26 15:32:56;;;;;;;5.05;3.28;;;19.70;95.60;;;;;;5009568;28;20199;-76
2022/05/26 15:35:23;;;;;;;6.30;3.15;;;19.70;95.70;;;;;;5010281;28;20224;-76
2022/05/26 15:37:51;;;;;;;4.28;3.10;;;19.90;95.60;;;;;;5009387;28;20208;-76
2022/05/26 15:40:22;;;;;;;6.88;3.70;;;19.90;95.60;;;;;;5009693;28;20200;-76
2022/05/26 15:42:53;;;;;;;5.82;3.38;;;20.00;95.30;;;;;;5011594;28;20216;-75
2022/05/26 15:45:20;;;;;;;5.93;3.38;;;20.00;96.00;;;;;;5012776;28;20222;-78
2022/05/26 15:47:48;;;;;;;4.60;3.05;;;20.10;95.90;;;;;;5011817;28;20211;-76
2022/05/26 15:50:18;;;;;;;8.07;3.60;;;20.00;95.40;;;;;;5008008;28;20647;-76
2022/05/26 15:52:47;;;;;;;6.30;3.20;;;20.00;95.80;;;;;;5010531;28;20203;-76
2022/05/26 15:55:15;;;;;;;7.43;3.45;;;20.00;96.20;;;;;;5010885;28;20220;-76
2022/05/26 15:57:49;;;;;;;6.85;3.10;;;19.90;96.10;;;;;;5008475;28;20207;-77
2022/05/26 16:00:19;;;;;;;6.45;3.80;;;19.80;96.10;;;;;;5005757;28;20194;-77
2022/05/26 16:02:47;;;;;;;6.97;3.80;;;19.70;96.30;;;;;;5016540;28;20220;-77
2022/05/26 16:05:31;;;;;;;4.30;3.63;;;19.70;96.70;;;;;;5013702;28;20220;-81
2022/05/26 16:07:58;;;;;;;5.57;3.40;;;19.70;97.00;;;;;;5013953;28;20192;-79
2022/05/26 16:10:26;;;;;;;4.95;2.80;;;19.80;97.30;;;;;;5015394;28;20570;-78
2022/05/26 16:12:55;;;;;;;5.00;2.90;;;19.70;97.10;;;;;;5015360;28;20207;-79
2022/05/26 16:15:25;;;;;;;6.30;3.45;;;19.70;97.10;;;;;;5014008;28;20230;-80
2022/05/26 16:17:53;;;;;;;4.82;2.95;;;19.80;97.70;;;;;;5016066;28;20198;-78
2022/05/26 16:20:36;;;;;;;4.57;3.15;;;19.90;97.30;;;;;;5029230;28;20214;-78
2022/05/26 16:23:05;;;;;;;5.65;2.97;;;19.80;97.10;;;;;;5015271;28;20219;-79
2022/05/26 16:25:32;;;;;;;5.00;3.08;;;19.80;97.40;;;;;;5012694;28;20239;-78
2022/05/26 16:28:03;;;;;;;4.30;3.08;;;19.80;97.40;;;;;;5013535;28;20200;-80
2022/05/26 16:30:30;;;;;;;6.00;3.20;;;19.70;97.40;;;;;;5003147;28;20207;-75
2022/05/26 16:32:58;;;;;;;3.55;2.90;;;19.70;97.40;;;;;;5012813;28;20207;-77
2022/05/26 16:38:14;;;;;;;4.97;3.53;;;19.70;97.40;;;;;;5008732;28;20195;-80
2022/05/26 16:40:42;;;;;;;5.57;3.10;;;19.70;97.40;;;;;;4996090;28;20207;-79
2022/05/26 16:43:11;;;;;;;5.07;2.78;;;19.70;97.60;;;;;;5013834;28;20273;-81
2022/05/26 16:45:41;;;;;;;5.65;2.85;;;19.70;97.90;;;;;;5010068;28;20224;-79
2022/05/26 16:48:08;;;;;;;5.55;2.70;;;19.70;97.90;;;;;;5013480;28;20199;-78
2022/05/26 16:50:38;;;;;;;4.75;2.50;;;19.80;98.20;;;;;;5012193;28;20218;-78
2022/05/26 16:53:06;;;;;;;5.13;3.45;;;19.70;98.00;;;;;;5009530;28;20195;-78
2022/05/26 16:55:36;;;;;;;3.38;2.67;;;19.80;98.20;;;;;;5008182;28;20216;-78
2022/05/26 16:58:06;;;;;;;3.85;2.67;;;19.70;98.00;;;;;;5015231;28;20213;-78
2022/05/26 17:00:45;;;;;;;3.22;2.67;;;19.70;98.10;;;;;;5014709;28;20214;-77
2022/05/26 17:03:16;;;;;;;5.75;2.95;;;19.70;98.30;;;;;;5015953;28;20223;-78
2022/05/26 17:05:44;;;;;;;4.72;2.80;;;19.70;98.30;;;;;;5013037;28;20210;-77
2022/05/26 17:08:14;;;;;;;4.32;2.50;;;19.70;98.60;;;;;;5012943;28;20199;-77
2022/05/26 17:10:43;;;;;;;5.05;2.88;;;19.50;98.30;;;;;;5010964;28;20208;-78
2022/05/26 17:21:40;;;;;;;3.85;2.60;;;19.50;99.10;;;;;;5016405;28;20199;-78
2022/05/26 17:24:08;;;;;;;6.68;3.13;;;19.60;99.00;;;;;;5016208;28;20226;-78
2022/05/26 17:26:38;;;;;;;5.32;2.83;;;19.50;99.70;;;;;;5010376;28;20542;-77
2022/05/26 17:29:07;;;;;;;6.30;2.78;;;19.50;99.90;;;;;;5014798;28;20195;-77
2022/05/26 17:31:45;;;;;;;3.53;2.30;;;19.50;99.70;;;;;;5009068;28;20215;-77
2022/05/26 17:34:13;;;;;;;4.85;2.88;;;19.50;99.70;;;;;;5012617;28;20222;-78
2022/05/26 17:36:44;;;;;;;4.55;2.53;;;19.50;99.70;;;;;;5011201;28;20196;-80
2022/05/26 17:39:15;;;;;;;3.50;2.65;;;19.50;99.80;;;;;;5012884;28;20207;-78
2022/05/26 17:41:42;;;;;;;5.45;2.30;;;19.50;99.90;;;;;;5006477;28;20279;-78
2022/05/26 17:44:15;;;;;;;5.15;2.78;;;19.50;99.90;;;;;;5016541;28;20238;-77
2022/05/26 17:46:45;;;;;;;3.58;2.60;;;19.40;99.90;;;;;;5005015;28;20196;-77
2022/05/26 17:49:16;;;;;;;5.55;2.45;;;19.50;99.90;;;;;;5012538;28;20203;-74
2022/05/26 17:51:46;;;;;;;4.90;2.30;;;19.50;99.90;;;;;;5013931;28;20207;-75
2022/05/26 17:54:15;;;;;;;5.70;2.38;;;19.50;99.90;;;;;;5002440;28;20227;-75
2022/05/26 17:56:51;;;;;;;5.13;2.17;;;19.40;99.90;;;;;;5013014;28;20200;-74
2022/05/26 17:59:21;;;;;;;5.10;2.20;;;19.40;99.90;;;;;;5005779;28;20199;-75
2022/05/26 18:02:04;;;;;;;3.10;2.08;;;19.40;99.90;;;;;;5015687;28;20203;-75
2022/05/26 18:04:39;;;;;;;3.75;2.03;;;19.40;99.90;;;;;;5014343;28;20223;-75
2022/05/26 18:07:07;;;;;;;5.28;2.45;;;19.30;99.90;;;;;;5015134;28;20199;-75
2022/05/26 18:09:35;;;;;;;3.78;2.05;;;19.30;99.90;;;;;;5002570;28;20666;-75
2022/05/26 18:12:02;;;;;;;5.15;2.13;;;19.30;99.90;;;;;;4997550;28;20204;-76
2022/05/26 18:14:30;;;;;;;5.20;2.47;;;19.30;99.90;;;;;;4997016;28;20227;-75
2022/05/26 18:16:59;;;;;;;5.53;2.28;;;19.30;99.90;;;;;;5002875;28;20214;-75
2022/05/26 18:19:30;;;;;;;4.97;2.10;;;19.30;99.90;;;;;;5013086;28;20212;-75
2022/05/26 18:21:57;;;;;;;4.82;2.63;;;19.30;99.90;;;;;;5031060;28;20223;-75
2022/05/26 18:24:25;;;;;;;4.30;2.28;;;19.30;99.90;;;;;;5008023;28;20226;-76
2022/05/26 18:26:52;;;;;;;3.22;1.98;;;19.20;99.90;;;;;;5009601;28;20219;-76
2022/05/26 18:29:19;;;;;;;3.72;2.10;;;19.20;99.90;;;;;;5000078;28;20295;-76
2022/05/26 18:32:07;;;;;;;5.72;2.22;;;19.20;99.90;;;;;;4997005;28;20209;-78
2022/05/26 18:34:38;;;;;;;5.18;2.08;;;19.20;99.90;;;;;;5010478;28;20212;-77
2022/05/26 18:37:13;;;;;;;7.68;2.03;;;19.40;99.90;;;;;;5001976;28;20196;-76
2022/05/26 18:39:40;;;;;;;5.55;2.13;;;19.40;99.90;;;;;;5011504;28;20195;-79
2022/05/26 18:42:09;;;;;;;5.25;2.53;;;19.30;99.90;;;;;;5004815;28;20215;-78
2022/05/26 18:44:37;;;;;;;6.10;2.33;;;19.30;99.90;;;;;;5010671;28;20215;-78
2022/05/26 18:47:15;;;;;;;4.50;2.33;;;19.30;99.90;;;;;;5009313;28;20203;-79
2022/05/26 18:49:53;;;;;;;5.68;1.73;;;19.30;99.90;;;;;;5012140;28;20212;-77
2022/05/26 18:52:21;;;;;;;7.75;1.90;;;19.30;99.90;;;;;;5013736;28;20218;-77
2022/05/26 18:54:49;;;;;;;6.97;2.60;;;19.30;99.90;;;;;;5001397;28;20690;-80
2022/05/26 18:57:18;;;;;;;6.85;2.13;;;19.30;99.90;;;;;;5005268;28;20638;-77
2022/05/26 18:59:46;;;;;;;3.90;1.92;;;19.30;99.90;;;;;;4999213;28;20200;-77
2022/05/26 19:02:32;;;;;;;2.60;1.77;;;19.20;99.90;;;;;;5002039;28;20196;-76
2022/05/26 19:05:33;;;;;;;5.57;2.10;;;19.20;99.90;;;;;;5012172;28;20224;-76
2022/05/26 19:08:23;;;;;;;2.42;1.60;;;19.20;99.90;;;;;;5013337;28;20206;-77
2022/05/26 19:11:06;;;;;;;4.82;2.10;;;19.20;99.90;;;;;;5013742;28;20203;-77
2022/05/26 19:13:37;;;;;;;3.58;1.95;;;19.20;99.90;;;;;;5014774;28;20202;-77
2022/05/26 19:16:06;;;;;;;4.10;1.70;;;19.20;99.90;;;;;;5011614;28;20191;-77
2022/05/26 19:18:33;;;;;;;3.95;1.98;;;19.10;99.90;;;;;;4999577;28;20208;-75
2022/05/26 19:21:02;;;;;;;5.03;2.38;;;19.10;99.90;;;;;;5007087;28;20207;-77
2022/05/26 19:23:30;;;;;;;4.10;1.95;;;19.00;99.90;;;;;;5018618;28;20204;-78
2022/05/26 19:26:00;;;;;;;3.78;1.77;;;19.10;99.90;;;;;;5007106;28;20204;-78
2022/05/26 19:28:31;;;;;;;5.03;1.73;;;19.10;99.90;;;;;;5000258;28;20199;-77
2022/05/26 19:31:00;;;;;;;4.78;1.85;;;19.10;99.90;;;;;;5000101;28;20686;-78
2022/05/26 19:33:29;;;;;;;3.15;1.73;;;19.10;99.90;;;;;;5012783;28;20196;-77
2022/05/26 19:35:57;;;;;;;4.30;1.80;;;19.10;99.90;;;;;;5004351;28;20203;-78
2022/05/26 19:38:25;;;;;;;6.80;2.33;;;19.10;99.90;;;;;;5092906;22;20238;-81
2022/05/26 19:40:53;;;;;;;4.47;1.83;;;19.00;99.90;;;;;;5000155;28;20220;-81
2022/05/26 19:43:26;;;;;;;5.22;1.65;;;19.10;99.90;;;;;;5000387;28;20216;-81
2022/05/26 19:45:54;;;;;;;5.80;1.92;;;19.00;99.90;;;;;;5000159;28;20204;-81
2022/05/26 19:48:25;;;;;;;5.28;1.88;;;19.10;99.90;;;;;;5021327;28;20220;-81
2022/05/26 19:50:53;;;;;;;4.80;1.85;;;19.00;99.90;;;;;;5018935;28;20549;-81
2022/05/26 19:53:20;;;;;;;4.70;1.55;;;19.00;99.90;;;;;;5019985;28;20200;-81
2022/05/26 19:55:50;;;;;;;5.95;1.77;;;18.90;99.90;;;;;;5022815;28;20564;-81
2022/05/26 19:58:45;;;;;;;5.07;1.90;;;18.90;99.90;;;;;;5014555;28;20219;-80
2022/05/26 20:01:30;;;;;;;3.88;1.50;;;19.00;99.90;;;;;;5013525;28;20218;-80
2022/05/26 20:04:18;;;;;;;3.47;1.73;;;19.00;99.90;;;;;;5019689;28;20203;-82
2022/05/26 20:06:47;;;;;;;5.90;2.13;;;18.90;99.90;;;;;;5022571;28;20215;-82
2022/05/26 20:09:17;;;;;;;6.90;2.00;;;18.90;99.90;;;;;;5016650;28;20200;-82
2022/05/26 20:11:53;;;;;;;5.93;2.28;;;18.90;99.90;;;;;;5022918;28;20203;-83
2022/05/26 20:14:21;;;;;;;5.32;2.10;;;18.90;99.90;;;;;;5019087;28;20214;-82
2022/05/26 20:16:49;;;;;;;4.70;1.63;;;18.80;99.90;;;;;;5018688;28;20577;-82
2022/05/26 20:19:16;;;;;;;5.68;2.00;;;18.80;99.90;;;;;;5022374;28;20206;-82
2022/05/26 20:21:44;;;;;;;3.72;1.80;;;18.80;99.90;;;;;;5018615;28;20206;-81
2022/05/26 20:24:17;;;;;;;5.53;1.75;;;18.80;99.90;;;;;;5021120;28;20203;-82
2022/05/26 20:26:45;;;;;;;3.88;1.80;;;18.80;99.90;;;;;;5019079;28;20187;-81
2022/05/26 20:29:32;;;;;;;7.22;2.10;;;18.80;99.90;;;;;;5026784;28;20191;-82
2022/05/26 20:32:09;;;;;;;3.90;1.90;;;18.70;99.90;;;;;;5013180;28;20200;-82
2022/05/26 20:38:34;;;;;;;5.85;1.70;;;18.70;99.90;;;;;;5017271;28;20243;-81
2022/05/26 20:41:11;;;;;;;4.10;1.48;;;18.60;99.90;;;;;;5012679;28;20202;-81
2022/05/26 20:43:41;;;;;;;3.33;1.70;;;18.60;99.90;;;;;;5009203;28;20195;-81
2022/05/26 20:46:18;;;;;;;4.07;1.85;;;18.50;99.90;;;;;;5016948;28;20191;-82
2022/05/26 20:48:54;;;;;;;3.28;1.80;;;18.50;99.90;;;;;;5012788;28;20224;-82
2022/05/26 20:51:26;;;;;;;3.20;1.70;;;18.50;99.90;;;;;;5015829;28;20202;-82
2022/05/26 20:53:54;;;;;;;4.00;1.88;;;18.50;99.90;;;;;;5019291;28;20211;-82
2022/05/26 20:56:22;;;;;;;3.75;1.65;;;18.50;99.90;;;;;;5013578;28;20236;-81
2022/05/26 20:58:50;;;;;;;4.93;1.73;;;18.50;99.90;;;;;;5018529;28;20226;-81
2022/05/26 21:01:20;;;;;;;3.75;1.70;;;18.50;99.90;;;;;;5029020;28;20196;-82
2022/05/26 21:03:50;;;;;;;3.75;1.83;;;18.50;99.90;;;;;;5018772;28;20200;-81
2022/05/26 21:06:23;;;;;;;5.28;1.50;;;18.40;99.90;;;;;;5012472;28;20191;-81
2022/05/26 21:09:11;;;;;;;3.78;1.70;;;18.30;99.90;;;;;;5019028;28;20216;-81
2022/05/26 21:36:15;;;;;;;5.95;1.95;;;18.10;99.90;;;;;;4807138;29;20237;-81
2022/05/26 22:18:15;;;;;;;4.97;2.13;;;17.70;99.90;;;;;;4885942;29;20338;-80
2022/05/26 23:47:59;;;;;;;4.55;1.65;;;16.20;99.90;;;;;;4800441;29;20230;-80
2022/05/26 23:52:00;;;;;;;4.28;1.83;;;16.30;99.90;;;;;;4792001;29;20211;-81
